sensor_id;sensor_type;location;lat;lon;timestamp;P1;durP1;ratioP1;P2;durP2;ratioP2
20150;SDS011;10236;49.638;6.830;2023-04-07T00:00:03;17.37;;;13.20;;
20150;SDS011;10236;49.638;6.830;2023-04-07T00:02:41;18.47;;;13.27;;
20150;SDS011;10236;49.638;6.830;2023-04-07T00:05:31;23.33;;;14.10;;
20150;SDS011;10236;49.638;6.830;2023-04-07T00:08:09;22.97;;;14.67;;
20150;SDS011;10236;49.638;6.830;2023-04-07T00:10:54;22.20;;;14.33;;
20150;SDS011;10236;49.638;6.830;2023-04-07T00:13:22;23.13;;;14.73;;
20150;SDS011;10236;49.638;6.830;2023-04-07T00:15:54;23.10;;;13.47;;
20150;SDS011;10236;49.638;6.830;2023-04-07T00:18:35;21.40;;;14.13;;
20150;SDS011;10236;49.638;6.830;2023-04-07T00:21:07;22.43;;;14.40;;
20150;SDS011;10236;49.638;6.830;2023-04-07T00:23:46;20.23;;;14.03;;
20150;SDS011;10236;49.638;6.830;2023-04-07T00:26:12;21.17;;;14.40;;
20150;SDS011;10236;49.638;6.830;2023-04-07T00:28:41;20.60;;;13.53;;
20150;SDS011;10236;49.638;6.830;2023-04-07T00:31:07;20.27;;;13.80;;
20150;SDS011;10236;49.638;6.830;2023-04-07T00:33:33;23.17;;;15.37;;
20150;SDS011;10236;49.638;6.830;2023-04-07T00:35:59;17.80;;;13.83;;
20150;SDS011;10236;49.638;6.830;2023-04-07T00:38:35;20.80;;;14.63;;
20150;SDS011;10236;49.638;6.830;2023-04-07T00:41:10;18.90;;;13.53;;
20150;SDS011;10236;49.638;6.830;2023-04-07T00:43:38;20.20;;;13.70;;
20150;SDS011;10236;49.638;6.830;2023-04-07T00:46:07;23.50;;;13.80;;
20150;SDS011;10236;49.638;6.830;2023-04-07T00:48:35;39.83;;;25.20;;
20150;SDS011;10236;49.638;6.830;2023-04-07T00:51:02;18.83;;;13.50;;
20150;SDS011;10236;49.638;6.830;2023-04-07T00:53:31;18.10;;;12.53;;
20150;SDS011;10236;49.638;6.830;2023-04-07T00:55:59;20.47;;;13.47;;
20150;SDS011;10236;49.638;6.830;2023-04-07T00:58:30;21.13;;;13.93;;
20150;SDS011;10236;49.638;6.830;2023-04-07T01:04:08;20.20;;;13.00;;
20150;SDS011;10236;49.638;6.830;2023-04-07T01:07:13;20.40;;;13.53;;
20150;SDS011;10236;49.638;6.830;2023-04-07T01:09:39;18.60;;;13.47;;
20150;SDS011;10236;49.638;6.830;2023-04-07T01:12:29;21.03;;;13.27;;
20150;SDS011;10236;49.638;6.830;2023-04-07T01:15:08;22.30;;;14.43;;
20150;SDS011;10236;49.638;6.830;2023-04-07T01:17:43;21.57;;;14.73;;
20150;SDS011;10236;49.638;6.830;2023-04-07T01:20:14;23.87;;;14.10;;
20150;SDS011;10236;49.638;6.830;2023-04-07T01:22:50;19.50;;;13.63;;
20150;SDS011;10236;49.638;6.830;2023-04-07T01:25:48;17.27;;;12.90;;
20150;SDS011;10236;49.638;6.830;2023-04-07T01:31:14;20.27;;;13.73;;
20150;SDS011;10236;49.638;6.830;2023-04-07T01:33:44;19.73;;;13.20;;
20150;SDS011;10236;49.638;6.830;2023-04-07T01:36:19;22.17;;;13.53;;
20150;SDS011;10236;49.638;6.830;2023-04-07T01:38:55;22.07;;;13.67;;
20150;SDS011;10236;49.638;6.830;2023-04-07T01:41:33;22.33;;;13.47;;
20150;SDS011;10236;49.638;6.830;2023-04-07T01:44:00;19.10;;;13.00;;
20150;SDS011;10236;49.638;6.830;2023-04-07T01:46:28;19.33;;;13.70;;
20150;SDS011;10236;49.638;6.830;2023-04-07T01:48:57;23.03;;;14.67;;
20150;SDS011;10236;49.638;6.830;2023-04-07T01:54:17;21.23;;;13.10;;
20150;SDS011;10236;49.638;6.830;2023-04-07T01:56:45;24.37;;;13.63;;
20150;SDS011;10236;49.638;6.830;2023-04-07T01:59:25;21.80;;;14.60;;
20150;SDS011;10236;49.638;6.830;2023-04-07T02:01:54;23.47;;;14.60;;
20150;SDS011;10236;49.638;6.830;2023-04-07T02:04:36;27.17;;;15.53;;
20150;SDS011;10236;49.638;6.830;2023-04-07T02:07:14;25.53;;;14.97;;
20150;SDS011;10236;49.638;6.830;2023-04-07T02:09:46;25.33;;;15.20;;
20150;SDS011;10236;49.638;6.830;2023-04-07T02:12:16;22.27;;;14.57;;
20150;SDS011;10236;49.638;6.830;2023-04-07T02:14:48;28.23;;;15.73;;
20150;SDS011;10236;49.638;6.830;2023-04-07T02:20:56;25.00;;;15.50;;
20150;SDS011;10236;49.638;6.830;2023-04-07T02:23:23;22.50;;;15.77;;
20150;SDS011;10236;49.638;6.830;2023-04-07T02:25:57;25.90;;;14.37;;
20150;SDS011;10236;49.638;6.830;2023-04-07T02:28:35;22.80;;;15.47;;
20150;SDS011;10236;49.638;6.830;2023-04-07T02:31:03;22.97;;;15.03;;
20150;SDS011;10236;49.638;6.830;2023-04-07T02:33:40;24.23;;;15.87;;
20150;SDS011;10236;49.638;6.830;2023-04-07T02:36:12;29.20;;;15.43;;
20150;SDS011;10236;49.638;6.830;2023-04-07T02:38:41;23.63;;;14.80;;
20150;SDS011;10236;49.638;6.830;2023-04-07T02:41:07;25.07;;;15.63;;
20150;SDS011;10236;49.638;6.830;2023-04-07T02:43:43;24.57;;;16.27;;
20150;SDS011;10236;49.638;6.830;2023-04-07T02:46:09;25.57;;;15.70;;
20150;SDS011;10236;49.638;6.830;2023-04-07T02:48:40;26.40;;;16.40;;
20150;SDS011;10236;49.638;6.830;2023-04-07T02:51:09;25.10;;;15.20;;
20150;SDS011;10236;49.638;6.830;2023-04-07T02:53:53;23.07;;;16.27;;
20150;SDS011;10236;49.638;6.830;2023-04-07T02:56:28;25.13;;;15.50;;
20150;SDS011;10236;49.638;6.830;2023-04-07T02:58:58;27.37;;;16.63;;
20150;SDS011;10236;49.638;6.830;2023-04-07T03:01:50;28.27;;;15.27;;
20150;SDS011;10236;49.638;6.830;2023-04-07T03:04:20;25.50;;;14.33;;
20150;SDS011;10236;49.638;6.830;2023-04-07T03:06:46;29.60;;;17.60;;
20150;SDS011;10236;49.638;6.830;2023-04-07T03:09:21;26.00;;;16.30;;
20150;SDS011;10236;49.638;6.830;2023-04-07T03:12:13;24.47;;;15.97;;
20150;SDS011;10236;49.638;6.830;2023-04-07T03:14:42;24.23;;;15.03;;
20150;SDS011;10236;49.638;6.830;2023-04-07T03:17:13;26.17;;;16.07;;
20150;SDS011;10236;49.638;6.830;2023-04-07T03:19:45;24.93;;;15.00;;
20150;SDS011;10236;49.638;6.830;2023-04-07T03:22:18;29.13;;;16.57;;
20150;SDS011;10236;49.638;6.830;2023-04-07T03:24:44;24.97;;;17.40;;
20150;SDS011;10236;49.638;6.830;2023-04-07T03:27:19;20.87;;;14.30;;
20150;SDS011;10236;49.638;6.830;2023-04-07T03:29:51;25.57;;;16.63;;
20150;SDS011;10236;49.638;6.830;2023-04-07T03:38:10;33.23;;;17.23;;
20150;SDS011;10236;49.638;6.830;2023-04-07T03:41:00;29.00;;;17.50;;
20150;SDS011;10236;49.638;6.830;2023-04-07T03:43:33;29.70;;;18.73;;
20150;SDS011;10236;49.638;6.830;2023-04-07T03:46:28;25.83;;;16.03;;
20150;SDS011;10236;49.638;6.830;2023-04-07T03:49:21;30.73;;;16.30;;
20150;SDS011;10236;49.638;6.830;2023-04-07T03:52:07;26.00;;;15.87;;
20150;SDS011;10236;49.638;6.830;2023-04-07T03:54:43;25.60;;;17.63;;
20150;SDS011;10236;49.638;6.830;2023-04-07T03:57:25;27.93;;;16.20;;
20150;SDS011;10236;49.638;6.830;2023-04-07T03:59:51;27.67;;;18.83;;
20150;SDS011;10236;49.638;6.830;2023-04-07T04:02:20;27.53;;;17.57;;
20150;SDS011;10236;49.638;6.830;2023-04-07T04:05:00;24.07;;;18.10;;
20150;SDS011;10236;49.638;6.830;2023-04-07T04:07:28;29.40;;;19.60;;
20150;SDS011;10236;49.638;6.830;2023-04-07T04:09:56;29.00;;;19.63;;
20150;SDS011;10236;49.638;6.830;2023-04-07T04:12:32;35.73;;;20.03;;
20150;SDS011;10236;49.638;6.830;2023-04-07T04:15:01;34.80;;;19.87;;
20150;SDS011;10236;49.638;6.830;2023-04-07T04:17:30;37.20;;;20.80;;
20150;SDS011;10236;49.638;6.830;2023-04-07T04:22:32;36.20;;;21.23;;
20150;SDS011;10236;49.638;6.830;2023-04-07T04:25:15;42.27;;;21.27;;
20150;SDS011;10236;49.638;6.830;2023-04-07T04:27:56;33.67;;;22.00;;
20150;SDS011;10236;49.638;6.830;2023-04-07T04:30:22;43.30;;;22.63;;
20150;SDS011;10236;49.638;6.830;2023-04-07T04:36:00;33.47;;;21.13;;
20150;SDS011;10236;49.638;6.830;2023-04-07T04:38:38;30.00;;;19.70;;
20150;SDS011;10236;49.638;6.830;2023-04-07T04:41:07;36.87;;;20.13;;
20150;SDS011;10236;49.638;6.830;2023-04-07T04:44:00;31.33;;;17.87;;
20150;SDS011;10236;49.638;6.830;2023-04-07T04:49:08;24.20;;;15.80;;
20150;SDS011;10236;49.638;6.830;2023-04-07T04:51:47;26.90;;;15.17;;
20150;SDS011;10236;49.638;6.830;2023-04-07T04:54:23;26.03;;;15.77;;
20150;SDS011;10236;49.638;6.830;2023-04-07T04:57:00;25.63;;;15.97;;
20150;SDS011;10236;49.638;6.830;2023-04-07T04:59:30;26.97;;;15.87;;
20150;SDS011;10236;49.638;6.830;2023-04-07T05:01:56;24.20;;;14.73;;
20150;SDS011;10236;49.638;6.830;2023-04-07T05:04:31;25.70;;;14.93;;
20150;SDS011;10236;49.638;6.830;2023-04-07T05:07:02;24.20;;;15.00;;
20150;SDS011;10236;49.638;6.830;2023-04-07T05:09:47;24.73;;;15.30;;
20150;SDS011;10236;49.638;6.830;2023-04-07T05:12:31;25.90;;;14.50;;
20150;SDS011;10236;49.638;6.830;2023-04-07T05:17:57;25.17;;;15.07;;
20150;SDS011;10236;49.638;6.830;2023-04-07T05:20:49;29.63;;;15.20;;
20150;SDS011;10236;49.638;6.830;2023-04-07T05:23:15;22.80;;;13.80;;
20150;SDS011;10236;49.638;6.830;2023-04-07T05:25:53;22.73;;;14.10;;
20150;SDS011;10236;49.638;6.830;2023-04-07T05:28:25;19.60;;;13.23;;
20150;SDS011;10236;49.638;6.830;2023-04-07T05:34:00;22.60;;;13.30;;
20150;SDS011;10236;49.638;6.830;2023-04-07T05:36:33;24.73;;;14.07;;
20150;SDS011;10236;49.638;6.830;2023-04-07T05:39:08;23.70;;;12.20;;
20150;SDS011;10236;49.638;6.830;2023-04-07T05:41:47;21.67;;;12.37;;
20150;SDS011;10236;49.638;6.830;2023-04-07T05:47:26;18.07;;;11.33;;
20150;SDS011;10236;49.638;6.830;2023-04-07T05:49:59;21.20;;;11.13;;
20150;SDS011;10236;49.638;6.830;2023-04-07T05:52:41;20.70;;;11.40;;
20150;SDS011;10236;49.638;6.830;2023-04-07T05:55:16;17.80;;;11.87;;
20150;SDS011;10236;49.638;6.830;2023-04-07T06:00:38;23.70;;;11.83;;
20150;SDS011;10236;49.638;6.830;2023-04-07T06:03:12;18.43;;;11.17;;
20150;SDS011;10236;49.638;6.830;2023-04-07T06:05:44;21.67;;;11.73;;
20150;SDS011;10236;49.638;6.830;2023-04-07T06:08:10;18.33;;;11.47;;
20150;SDS011;10236;49.638;6.830;2023-04-07T06:10:36;18.27;;;10.27;;
20150;SDS011;10236;49.638;6.830;2023-04-07T06:13:02;20.43;;;10.70;;
20150;SDS011;10236;49.638;6.830;2023-04-07T06:15:39;15.87;;;9.80;;
20150;SDS011;10236;49.638;6.830;2023-04-07T06:18:25;15.87;;;9.67;;
20150;SDS011;10236;49.638;6.830;2023-04-07T06:21:03;17.43;;;9.50;;
20150;SDS011;10236;49.638;6.830;2023-04-07T06:23:29;17.93;;;9.97;;
20150;SDS011;10236;49.638;6.830;2023-04-07T06:26:04;10.43;;;7.27;;
20150;SDS011;10236;49.638;6.830;2023-04-07T06:28:33;9.13;;;6.60;;
20150;SDS011;10236;49.638;6.830;2023-04-07T06:31:02;11.00;;;6.10;;
20150;SDS011;10236;49.638;6.830;2023-04-07T06:33:39;4.60;;;3.17;;
20150;SDS011;10236;49.638;6.830;2023-04-07T06:36:15;3.73;;;1.53;;
20150;SDS011;10236;49.638;6.830;2023-04-07T06:38:47;1.70;;;1.23;;
20150;SDS011;10236;49.638;6.830;2023-04-07T06:41:17;1.03;;;0.80;;
20150;SDS011;10236;49.638;6.830;2023-04-07T06:43:50;0.60;;;0.50;;
20150;SDS011;10236;49.638;6.830;2023-04-07T06:46:19;1.57;;;0.73;;
20150;SDS011;10236;49.638;6.830;2023-04-07T06:48:53;2.33;;;1.00;;
20150;SDS011;10236;49.638;6.830;2023-04-07T06:51:24;1.90;;;1.00;;
20150;SDS011;10236;49.638;6.830;2023-04-07T06:53:53;2.57;;;1.10;;
20150;SDS011;10236;49.638;6.830;2023-04-07T06:56:22;2.60;;;1.30;;
20150;SDS011;10236;49.638;6.830;2023-04-07T06:59:00;1.93;;;1.43;;
20150;SDS011;10236;49.638;6.830;2023-04-07T07:01:29;1.80;;;1.30;;
20150;SDS011;10236;49.638;6.830;2023-04-07T07:04:04;2.40;;;1.57;;
20150;SDS011;10236;49.638;6.830;2023-04-07T07:06:38;1.80;;;1.30;;
20150;SDS011;10236;49.638;6.830;2023-04-07T07:09:10;1.87;;;1.47;;
20150;SDS011;10236;49.638;6.830;2023-04-07T07:11:39;2.00;;;1.40;;
20150;SDS011;10236;49.638;6.830;2023-04-07T07:14:05;2.50;;;1.53;;
20150;SDS011;10236;49.638;6.830;2023-04-07T07:16:39;3.27;;;2.23;;
20150;SDS011;10236;49.638;6.830;2023-04-07T07:19:05;2.37;;;1.67;;
20150;SDS011;10236;49.638;6.830;2023-04-07T07:21:43;8.80;;;4.97;;
20150;SDS011;10236;49.638;6.830;2023-04-07T07:24:09;12.37;;;8.40;;
20150;SDS011;10236;49.638;6.830;2023-04-07T07:26:38;5.93;;;3.90;;
20150;SDS011;10236;49.638;6.830;2023-04-07T07:29:12;52.80;;;20.57;;
20150;SDS011;10236;49.638;6.830;2023-04-07T07:31:44;43.20;;;17.83;;
20150;SDS011;10236;49.638;6.830;2023-04-07T07:34:16;129.70;;;57.87;;
20150;SDS011;10236;49.638;6.830;2023-04-07T07:36:42;151.10;;;57.30;;
20150;SDS011;10236;49.638;6.830;2023-04-07T07:39:08;96.23;;;36.13;;
20150;SDS011;10236;49.638;6.830;2023-04-07T07:41:40;80.27;;;32.63;;
20150;SDS011;10236;49.638;6.830;2023-04-07T07:44:06;29.43;;;17.87;;
20150;SDS011;10236;49.638;6.830;2023-04-07T07:46:35;12.80;;;9.43;;
20150;SDS011;10236;49.638;6.830;2023-04-07T07:51:56;7.03;;;5.63;;
20150;SDS011;10236;49.638;6.830;2023-04-07T07:54:34;5.97;;;4.37;;
20150;SDS011;10236;49.638;6.830;2023-04-07T07:57:00;7.57;;;4.57;;
20150;SDS011;10236;49.638;6.830;2023-04-07T07:59:34;5.70;;;4.57;;
20150;SDS011;10236;49.638;6.830;2023-04-07T08:02:13;17.80;;;12.93;;
20150;SDS011;10236;49.638;6.830;2023-04-07T08:08:10;15.80;;;11.03;;
20150;SDS011;10236;49.638;6.830;2023-04-07T08:10:36;9.80;;;6.47;;
20150;SDS011;10236;49.638;6.830;2023-04-07T08:13:10;21.23;;;13.47;;
20150;SDS011;10236;49.638;6.830;2023-04-07T08:15:45;13.13;;;7.07;;
20150;SDS011;10236;49.638;6.830;2023-04-07T08:18:22;9.67;;;6.47;;
20150;SDS011;10236;49.638;6.830;2023-04-07T08:23:28;12.63;;;7.20;;
20150;SDS011;10236;49.638;6.830;2023-04-07T08:26:12;11.17;;;7.97;;
20150;SDS011;10236;49.638;6.830;2023-04-07T08:28:43;13.10;;;7.80;;
20150;SDS011;10236;49.638;6.830;2023-04-07T08:31:16;13.43;;;8.03;;
20150;SDS011;10236;49.638;6.830;2023-04-07T08:33:44;11.73;;;7.10;;
20150;SDS011;10236;49.638;6.830;2023-04-07T08:36:26;12.83;;;7.53;;
20150;SDS011;10236;49.638;6.830;2023-04-07T08:38:52;14.73;;;8.40;;
20150;SDS011;10236;49.638;6.830;2023-04-07T08:44:26;13.43;;;8.50;;
20150;SDS011;10236;49.638;6.830;2023-04-07T08:47:09;15.37;;;7.97;;
20150;SDS011;10236;49.638;6.830;2023-04-07T08:52:28;11.03;;;8.10;;
20150;SDS011;10236;49.638;6.830;2023-04-07T08:55:00;15.07;;;8.23;;
20150;SDS011;10236;49.638;6.830;2023-04-07T08:57:36;13.77;;;7.93;;
20150;SDS011;10236;49.638;6.830;2023-04-07T09:00:09;14.63;;;8.57;;
20150;SDS011;10236;49.638;6.830;2023-04-07T09:02:44;14.93;;;9.03;;
20150;SDS011;10236;49.638;6.830;2023-04-07T09:05:12;12.33;;;8.67;;
20150;SDS011;10236;49.638;6.830;2023-04-07T09:07:52;13.97;;;8.67;;
20150;SDS011;10236;49.638;6.830;2023-04-07T09:10:24;11.50;;;8.90;;
20150;SDS011;10236;49.638;6.830;2023-04-07T09:12:56;14.10;;;9.13;;
20150;SDS011;10236;49.638;6.830;2023-04-07T09:15:39;12.33;;;8.83;;
20150;SDS011;10236;49.638;6.830;2023-04-07T09:18:19;14.30;;;8.70;;
20150;SDS011;10236;49.638;6.830;2023-04-07T09:23:40;14.00;;;7.80;;
20150;SDS011;10236;49.638;6.830;2023-04-07T09:28:59;16.83;;;9.80;;
20150;SDS011;10236;49.638;6.830;2023-04-07T09:31:47;15.63;;;8.80;;
20150;SDS011;10236;49.638;6.830;2023-04-07T09:34:25;13.33;;;9.43;;
20150;SDS011;10236;49.638;6.830;2023-04-07T09:36:51;17.23;;;9.53;;
20150;SDS011;10236;49.638;6.830;2023-04-07T09:39:18;15.17;;;9.40;;
20150;SDS011;10236;49.638;6.830;2023-04-07T09:41:44;16.17;;;9.63;;
20150;SDS011;10236;49.638;6.830;2023-04-07T09:44:15;13.77;;;9.97;;
20150;SDS011;10236;49.638;6.830;2023-04-07T09:47:01;13.60;;;9.13;;
20150;SDS011;10236;49.638;6.830;2023-04-07T09:49:27;12.57;;;8.20;;
20150;SDS011;10236;49.638;6.830;2023-04-07T09:54:38;17.07;;;10.10;;
20150;SDS011;10236;49.638;6.830;2023-04-07T09:57:07;13.33;;;8.90;;
20150;SDS011;10236;49.638;6.830;2023-04-07T09:59:34;14.40;;;9.13;;
20150;SDS011;10236;49.638;6.830;2023-04-07T10:02:01;12.40;;;8.20;;
20150;SDS011;10236;49.638;6.830;2023-04-07T10:04:27;14.80;;;9.37;;
20150;SDS011;10236;49.638;6.830;2023-04-07T10:06:53;14.70;;;9.13;;
20150;SDS011;10236;49.638;6.830;2023-04-07T10:09:24;15.37;;;10.57;;
20150;SDS011;10236;49.638;6.830;2023-04-07T10:11:50;15.33;;;7.90;;
20150;SDS011;10236;49.638;6.830;2023-04-07T10:14:17;13.10;;;7.80;;
20150;SDS011;10236;49.638;6.830;2023-04-07T10:16:43;12.53;;;7.80;;
20150;SDS011;10236;49.638;6.830;2023-04-07T10:19:13;14.10;;;8.47;;
20150;SDS011;10236;49.638;6.830;2023-04-07T10:21:39;13.37;;;7.40;;
20150;SDS011;10236;49.638;6.830;2023-04-07T10:26:56;13.63;;;7.73;;
20150;SDS011;10236;49.638;6.830;2023-04-07T10:29:26;11.23;;;7.70;;
20150;SDS011;10236;49.638;6.830;2023-04-07T10:31:57;14.60;;;8.63;;
20150;SDS011;10236;49.638;6.830;2023-04-07T10:37:10;19.37;;;12.03;;
20150;SDS011;10236;49.638;6.830;2023-04-07T10:39:49;10.60;;;7.37;;
20150;SDS011;10236;49.638;6.830;2023-04-07T10:45:07;10.80;;;7.53;;
20150;SDS011;10236;49.638;6.830;2023-04-07T10:50:30;22.23;;;19.23;;
20150;SDS011;10236;49.638;6.830;2023-04-07T10:53:12;13.43;;;10.77;;
20150;SDS011;10236;49.638;6.830;2023-04-07T10:55:39;11.63;;;6.60;;
20150;SDS011;10236;49.638;6.830;2023-04-07T10:58:26;16.53;;;11.07;;
20150;SDS011;10236;49.638;6.830;2023-04-07T11:03:40;12.27;;;6.70;;
20150;SDS011;10236;49.638;6.830;2023-04-07T11:06:07;11.07;;;7.07;;
20150;SDS011;10236;49.638;6.830;2023-04-07T11:08:43;12.23;;;7.20;;
20150;SDS011;10236;49.638;6.830;2023-04-07T11:11:11;13.00;;;8.70;;
20150;SDS011;10236;49.638;6.830;2023-04-07T11:13:40;12.80;;;6.60;;
20150;SDS011;10236;49.638;6.830;2023-04-07T11:16:07;13.80;;;7.77;;
20150;SDS011;10236;49.638;6.830;2023-04-07T11:18:33;12.40;;;7.90;;
20150;SDS011;10236;49.638;6.830;2023-04-07T11:21:00;11.03;;;7.00;;
20150;SDS011;10236;49.638;6.830;2023-04-07T11:23:27;10.27;;;6.00;;
20150;SDS011;10236;49.638;6.830;2023-04-07T11:25:59;10.57;;;6.40;;
20150;SDS011;10236;49.638;6.830;2023-04-07T11:28:26;9.20;;;6.10;;
20150;SDS011;10236;49.638;6.830;2023-04-07T11:30:55;11.43;;;5.50;;
20150;SDS011;10236;49.638;6.830;2023-04-07T11:33:28;9.23;;;5.50;;
20150;SDS011;10236;49.638;6.830;2023-04-07T11:36:00;7.00;;;4.67;;
20150;SDS011;10236;49.638;6.830;2023-04-07T11:38:27;8.83;;;5.27;;
20150;SDS011;10236;49.638;6.830;2023-04-07T11:40:54;15.57;;;9.00;;
20150;SDS011;10236;49.638;6.830;2023-04-07T11:43:21;17.60;;;9.07;;
20150;SDS011;10236;49.638;6.830;2023-04-07T11:46:07;11.93;;;7.63;;
20150;SDS011;10236;49.638;6.830;2023-04-07T11:48:34;12.17;;;6.80;;
20150;SDS011;10236;49.638;6.830;2023-04-07T11:51:00;13.70;;;7.87;;
20150;SDS011;10236;49.638;6.830;2023-04-07T11:53:27;9.40;;;6.47;;
20150;SDS011;10236;49.638;6.830;2023-04-07T11:58:29;11.40;;;7.13;;
20150;SDS011;10236;49.638;6.830;2023-04-07T12:01:17;10.77;;;8.33;;
20150;SDS011;10236;49.638;6.830;2023-04-07T12:03:54;12.33;;;7.03;;
20150;SDS011;10236;49.638;6.830;2023-04-07T12:06:36;12.07;;;7.47;;
20150;SDS011;10236;49.638;6.830;2023-04-07T12:09:23;11.77;;;7.20;;
20150;SDS011;10236;49.638;6.830;2023-04-07T12:11:53;10.27;;;6.63;;
20150;SDS011;10236;49.638;6.830;2023-04-07T12:17:27;10.67;;;6.93;;
20150;SDS011;10236;49.638;6.830;2023-04-07T12:19:53;10.73;;;7.17;;
20150;SDS011;10236;49.638;6.830;2023-04-07T12:22:19;10.33;;;6.80;;
20150;SDS011;10236;49.638;6.830;2023-04-07T12:24:46;11.53;;;7.60;;
20150;SDS011;10236;49.638;6.830;2023-04-07T12:27:12;10.50;;;8.03;;
20150;SDS011;10236;49.638;6.830;2023-04-07T12:29:38;11.77;;;7.83;;
20150;SDS011;10236;49.638;6.830;2023-04-07T12:32:04;13.13;;;8.20;;
20150;SDS011;10236;49.638;6.830;2023-04-07T12:34:30;14.63;;;7.50;;
20150;SDS011;10236;49.638;6.830;2023-04-07T12:37:05;10.53;;;7.27;;
20150;SDS011;10236;49.638;6.830;2023-04-07T12:39:31;10.60;;;7.63;;
20150;SDS011;10236;49.638;6.830;2023-04-07T12:42:06;11.47;;;7.23;;
20150;SDS011;10236;49.638;6.830;2023-04-07T12:44:35;10.33;;;7.73;;
20150;SDS011;10236;49.638;6.830;2023-04-07T12:47:04;11.97;;;7.50;;
20150;SDS011;10236;49.638;6.830;2023-04-07T12:49:30;11.67;;;7.13;;
20150;SDS011;10236;49.638;6.830;2023-04-07T12:51:58;12.27;;;7.33;;
20150;SDS011;10236;49.638;6.830;2023-04-07T12:54:24;10.20;;;6.63;;
20150;SDS011;10236;49.638;6.830;2023-04-07T12:56:50;8.80;;;5.97;;
20150;SDS011;10236;49.638;6.830;2023-04-07T12:59:16;20.47;;;10.57;;
20150;SDS011;10236;49.638;6.830;2023-04-07T13:01:45;18.63;;;9.33;;
20150;SDS011;10236;49.638;6.830;2023-04-07T13:04:13;27.07;;;12.90;;
20150;SDS011;10236;49.638;6.830;2023-04-07T13:06:41;15.30;;;9.20;;
20150;SDS011;10236;49.638;6.830;2023-04-07T13:09:20;11.80;;;7.03;;
20150;SDS011;10236;49.638;6.830;2023-04-07T13:11:48;9.33;;;5.73;;
20150;SDS011;10236;49.638;6.830;2023-04-07T13:14:14;12.80;;;7.63;;
20150;SDS011;10236;49.638;6.830;2023-04-07T13:16:40;8.60;;;5.80;;
20150;SDS011;10236;49.638;6.830;2023-04-07T13:19:14;23.43;;;12.63;;
20150;SDS011;10236;49.638;6.830;2023-04-07T13:28:19;6.43;;;3.73;;
20150;SDS011;10236;49.638;6.830;2023-04-07T13:30:48;7.57;;;4.43;;
20150;SDS011;10236;49.638;6.830;2023-04-07T13:33:19;7.83;;;5.17;;
20150;SDS011;10236;49.638;6.830;2023-04-07T14:08:18;6.23;;;3.40;;
20150;SDS011;10236;49.638;6.830;2023-04-07T14:16:53;5.83;;;3.10;;
20150;SDS011;10236;49.638;6.830;2023-04-07T14:22:42;6.63;;;3.20;;
20150;SDS011;10236;49.638;6.830;2023-04-07T14:25:09;4.63;;;2.70;;
20150;SDS011;10236;49.638;6.830;2023-04-07T14:27:35;7.47;;;5.13;;
20150;SDS011;10236;49.638;6.830;2023-04-07T14:30:01;4.53;;;2.60;;
20150;SDS011;10236;49.638;6.830;2023-04-07T14:32:27;6.03;;;2.90;;
20150;SDS011;10236;49.638;6.830;2023-04-07T14:34:54;5.53;;;2.60;;
20150;SDS011;10236;49.638;6.830;2023-04-07T14:37:20;4.57;;;2.67;;
20150;SDS011;10236;49.638;6.830;2023-04-07T14:39:50;6.97;;;3.43;;
20150;SDS011;10236;49.638;6.830;2023-04-07T14:42:16;34.93;;;20.47;;
20150;SDS011;10236;49.638;6.830;2023-04-07T14:44:42;3.60;;;1.97;;
20150;SDS011;10236;49.638;6.830;2023-04-07T14:47:08;5.03;;;2.53;;
20150;SDS011;10236;49.638;6.830;2023-04-07T14:49:34;3.73;;;2.33;;
20150;SDS011;10236;49.638;6.830;2023-04-07T14:52:01;5.67;;;2.67;;
20150;SDS011;10236;49.638;6.830;2023-04-07T14:54:27;3.43;;;2.43;;
20150;SDS011;10236;49.638;6.830;2023-04-07T14:56:53;6.00;;;2.03;;
20150;SDS011;10236;49.638;6.830;2023-04-07T14:59:19;4.97;;;1.60;;
20150;SDS011;10236;49.638;6.830;2023-04-07T15:01:45;5.00;;;2.47;;
20150;SDS011;10236;49.638;6.830;2023-04-07T15:04:12;7.93;;;2.37;;
20150;SDS011;10236;49.638;6.830;2023-04-07T15:06:41;4.97;;;2.13;;
20150;SDS011;10236;49.638;6.830;2023-04-07T15:09:07;4.83;;;2.87;;
20150;SDS011;10236;49.638;6.830;2023-04-07T15:11:33;7.63;;;3.60;;
20150;SDS011;10236;49.638;6.830;2023-04-07T15:13:59;10.17;;;5.63;;
20150;SDS011;10236;49.638;6.830;2023-04-07T15:16:25;6.70;;;4.47;;
20150;SDS011;10236;49.638;6.830;2023-04-07T15:18:51;6.43;;;4.97;;
20150;SDS011;10236;49.638;6.830;2023-04-07T15:21:17;11.93;;;8.33;;
20150;SDS011;10236;49.638;6.830;2023-04-07T15:23:44;8.07;;;5.80;;
20150;SDS011;10236;49.638;6.830;2023-04-07T15:26:10;5.27;;;4.00;;
20150;SDS011;10236;49.638;6.830;2023-04-07T15:28:37;7.70;;;4.50;;
20150;SDS011;10236;49.638;6.830;2023-04-07T15:31:03;5.57;;;4.43;;
20150;SDS011;10236;49.638;6.830;2023-04-07T15:33:36;7.03;;;5.10;;
20150;SDS011;10236;49.638;6.830;2023-04-07T15:36:03;7.80;;;5.27;;
20150;SDS011;10236;49.638;6.830;2023-04-07T15:38:29;8.23;;;4.93;;
20150;SDS011;10236;49.638;6.830;2023-04-07T15:40:55;6.83;;;4.83;;
20150;SDS011;10236;49.638;6.830;2023-04-07T15:43:21;8.90;;;4.57;;
20150;SDS011;10236;49.638;6.830;2023-04-07T15:45:47;6.47;;;5.07;;
20150;SDS011;10236;49.638;6.830;2023-04-07T15:48:15;9.93;;;6.37;;
20150;SDS011;10236;49.638;6.830;2023-04-07T15:50:41;7.63;;;4.20;;
20150;SDS011;10236;49.638;6.830;2023-04-07T15:53:07;7.47;;;4.43;;
20150;SDS011;10236;49.638;6.830;2023-04-07T15:55:34;4.70;;;3.50;;
20150;SDS011;10236;49.638;6.830;2023-04-07T15:58:00;6.50;;;4.40;;
20150;SDS011;10236;49.638;6.830;2023-04-07T16:00:26;9.50;;;3.77;;
20150;SDS011;10236;49.638;6.830;2023-04-07T16:02:53;6.57;;;3.93;;
20150;SDS011;10236;49.638;6.830;2023-04-07T16:05:19;5.17;;;3.57;;
20150;SDS011;10236;49.638;6.830;2023-04-07T16:07:45;5.73;;;3.80;;
20150;SDS011;10236;49.638;6.830;2023-04-07T16:10:11;8.57;;;4.40;;
20150;SDS011;10236;49.638;6.830;2023-04-07T16:12:38;7.03;;;4.50;;
20150;SDS011;10236;49.638;6.830;2023-04-07T16:15:04;7.40;;;4.37;;
20150;SDS011;10236;49.638;6.830;2023-04-07T16:17:31;7.13;;;4.43;;
20150;SDS011;10236;49.638;6.830;2023-04-07T16:19:57;5.57;;;3.33;;
20150;SDS011;10236;49.638;6.830;2023-04-07T16:22:23;8.80;;;3.80;;
20150;SDS011;10236;49.638;6.830;2023-04-07T16:24:49;7.23;;;4.60;;
20150;SDS011;10236;49.638;6.830;2023-04-07T16:27:15;6.93;;;3.87;;
20150;SDS011;10236;49.638;6.830;2023-04-07T16:29:41;5.00;;;3.70;;
20150;SDS011;10236;49.638;6.830;2023-04-07T16:32:06;4.73;;;3.53;;
20150;SDS011;10236;49.638;6.830;2023-04-07T16:34:33;15.10;;;8.43;;
20150;SDS011;10236;49.638;6.830;2023-04-07T16:36:59;18.43;;;9.63;;
20150;SDS011;10236;49.638;6.830;2023-04-07T16:39:25;12.20;;;7.83;;
20150;SDS011;10236;49.638;6.830;2023-04-07T16:41:51;14.07;;;6.50;;
20150;SDS011;10236;49.638;6.830;2023-04-07T16:44:17;10.50;;;5.10;;
20150;SDS011;10236;49.638;6.830;2023-04-07T16:46:46;12.37;;;6.30;;
20150;SDS011;10236;49.638;6.830;2023-04-07T16:49:12;17.17;;;9.20;;
20150;SDS011;10236;49.638;6.830;2023-04-07T16:51:38;13.50;;;5.63;;
20150;SDS011;10236;49.638;6.830;2023-04-07T16:54:03;8.47;;;5.30;;
20150;SDS011;10236;49.638;6.830;2023-04-07T16:56:29;9.40;;;6.33;;
20150;SDS011;10236;49.638;6.830;2023-04-07T16:58:55;11.07;;;6.17;;
20150;SDS011;10236;49.638;6.830;2023-04-07T17:01:21;19.40;;;11.17;;
20150;SDS011;10236;49.638;6.830;2023-04-07T17:03:47;13.13;;;6.90;;
20150;SDS011;10236;49.638;6.830;2023-04-07T17:06:13;9.97;;;6.00;;